Time;durP1;ratioP1;P1;durP2;ratioP2;P2;SDS_P1;SDS_P2;PMS_P1;PMS_P2;Temp;Humidity;BMP_temperature;BMP_pressure;BME280_temperature;BME280_humidity;BME280_pressure;Samples;Min_cycle;Max_cycle;Signal;HPM_P1;HPM_P2
2022/10/16 00:02:10;;;;;;;4.82;1.70;;;17.80;99.90;;;;;;5053688;28;20202;-63
2022/10/16 00:04:37;;;;;;;2.60;0.98;;;17.90;99.90;;;;;;5052691;28;20307;-62
2022/10/16 00:07:03;;;;;;;3.05;1.10;;;17.90;99.90;;;;;;5053069;28;20247;-65
2022/10/16 00:09:31;;;;;;;2.53;1.00;;;18.10;99.90;;;;;;5053131;28;20229;-63
2022/10/16 00:11:58;;;;;;;1.85;1.00;;;18.10;99.90;;;;;;5052908;28;20229;-63
2022/10/16 00:14:25;;;;;;;2.78;1.15;;;18.20;99.90;;;;;;5052406;28;20206;-62
2022/10/16 00:16:51;;;;;;;5.00;1.45;;;18.20;99.90;;;;;;5053075;28;20208;-65
2022/10/16 00:19:18;;;;;;;2.47;1.63;;;18.20;99.90;;;;;;5052851;28;20544;-63
2022/10/16 00:21:45;;;;;;;5.97;1.40;;;18.20;99.90;;;;;;5052985;28;20201;-63
2022/10/16 00:24:12;;;;;;;2.97;1.20;;;18.20;99.90;;;;;;5052854;28;20205;-66
2022/10/16 00:26:40;;;;;;;7.38;1.60;;;18.20;99.90;;;;;;5052477;28;20205;-63
2022/10/16 00:29:07;;;;;;;2.78;1.50;;;18.20;99.90;;;;;;5052863;28;20209;-63
2022/10/16 00:31:34;;;;;;;4.43;1.50;;;18.30;99.90;;;;;;5052597;28;20230;-63
2022/10/16 00:34:01;;;;;;;6.80;1.70;;;18.30;99.90;;;;;;5052596;28;20673;-63
2022/10/16 00:36:28;;;;;;;1.92;1.42;;;18.30;99.90;;;;;;5051971;28;20242;-64
2022/10/16 00:38:59;;;;;;;4.32;1.42;;;18.20;99.90;;;;;;5052351;28;20585;-62
2022/10/16 00:41:26;;;;;;;1.35;1.20;;;18.10;99.90;;;;;;5051610;28;20319;-62
2022/10/16 00:43:56;;;;;;;1.92;1.48;;;18.00;99.90;;;;;;5052518;28;20209;-63
2022/10/16 00:46:26;;;;;;;2.90;1.15;;;18.00;99.90;;;;;;5051828;28;20213;-64
2022/10/16 00:48:56;;;;;;;4.22;1.30;;;18.00;99.90;;;;;;5052405;28;20212;-62
2022/10/16 00:51:28;;;;;;;4.18;1.55;;;18.10;99.90;;;;;;5052104;28;20232;-62
2022/10/16 00:53:56;;;;;;;3.35;1.38;;;18.10;99.90;;;;;;5052197;28;20205;-62
2022/10/16 00:56:22;;;;;;;2.97;1.38;;;18.10;99.90;;;;;;5051801;28;20259;-65
2022/10/16 00:58:49;;;;;;;1.80;1.05;;;18.10;99.90;;;;;;5052404;28;20209;-62
2022/10/16 01:01:18;;;;;;;6.13;1.30;;;18.10;99.90;;;;;;5052111;28;20233;-62
2022/10/16 01:03:45;;;;;;;5.47;1.25;;;18.10;99.90;;;;;;5052082;28;20209;-63
2022/10/16 01:06:29;;;;;;;1.48;0.80;;;18.10;99.90;;;;;;5051272;28;20212;-64
2022/10/16 01:09:09;;;;;;;4.47;0.90;;;18.10;99.90;;;;;;5051987;28;20201;-62
2022/10/16 01:11:44;;;;;;;4.97;1.35;;;18.00;99.90;;;;;;5052000;28;20607;-62
2022/10/16 01:14:18;;;;;;;2.13;1.17;;;17.90;99.90;;;;;;5051878;28;20220;-63
2022/10/16 01:16:53;;;;;;;2.35;0.95;;;17.80;99.90;;;;;;5051858;28;20213;-62
2022/10/16 01:19:34;;;;;;;4.53;1.20;;;17.70;99.90;;;;;;5051986;28;20243;-62
2022/10/16 01:22:02;;;;;;;1.83;1.20;;;17.80;99.90;;;;;;5051840;28;20571;-63
2022/10/16 01:24:34;;;;;;;1.85;1.30;;;17.80;99.90;;;;;;5051368;28;20210;-62
2022/10/16 01:27:18;;;;;;;4.75;1.35;;;17.90;99.90;;;;;;5052119;28;20670;-63
2022/10/16 01:29:52;;;;;;;6.43;1.40;;;17.90;99.90;;;;;;5052534;28;20261;-62
2022/10/16 01:32:24;;;;;;;4.05;1.50;;;17.90;99.90;;;;;;5052349;28;20287;-63
2022/10/16 01:34:56;;;;;;;5.50;1.55;;;18.00;99.90;;;;;;5051750;28;20574;-62
2022/10/16 01:37:32;;;;;;;2.10;1.50;;;17.90;99.90;;;;;;5051908;28;20205;-63
2022/10/16 01:40:03;;;;;;;5.93;1.60;;;17.70;99.90;;;;;;5052382;28;20243;-64
2022/10/16 01:42:36;;;;;;;2.38;1.40;;;17.60;99.90;;;;;;5052083;28;20225;-63
2022/10/16 01:45:07;;;;;;;3.75;1.58;;;17.40;99.90;;;;;;5051314;28;20209;-64
2022/10/16 01:47:36;;;;;;;5.13;1.83;;;17.30;99.90;;;;;;5051749;28;20227;-64
2022/10/16 01:50:06;;;;;;;4.53;1.38;;;17.20;99.90;;;;;;5051506;28;20225;-64
2022/10/16 01:52:37;;;;;;;6.70;1.65;;;17.10;99.90;;;;;;5053254;28;20233;-64
2022/10/16 01:55:08;;;;;;;3.88;1.42;;;17.20;99.90;;;;;;5055435;28;20205;-64
2022/10/16 01:57:39;;;;;;;5.00;1.40;;;17.20;99.90;;;;;;5056242;28;20594;-65
2022/10/16 02:00:10;;;;;;;5.35;1.90;;;17.10;99.90;;;;;;5055879;28;20235;-64
2022/10/16 02:02:39;;;;;;;3.78;1.70;;;17.10;99.90;;;;;;5055811;28;20206;-65
2022/10/16 02:05:15;;;;;;;3.78;1.20;;;17.00;99.90;;;;;;5055559;28;20693;-64
2022/10/16 02:07:42;;;;;;;3.72;1.35;;;17.00;99.90;;;;;;5056262;28;20212;-64
2022/10/16 02:10:10;;;;;;;4.22;1.70;;;17.00;99.90;;;;;;5055733;28;20351;-64
2022/10/16 02:12:41;;;;;;;3.45;1.50;;;17.00;99.90;;;;;;5055331;28;20221;-64
2022/10/16 02:15:09;;;;;;;2.72;1.55;;;17.00;99.90;;;;;;5054935;28;20658;-65
2022/10/16 02:17:36;;;;;;;2.63;1.65;;;16.90;99.90;;;;;;5055658;28;20216;-65
2022/10/16 02:20:04;;;;;;;4.38;1.33;;;16.80;99.90;;;;;;5055454;28;20229;-65
2022/10/16 02:22:35;;;;;;;4.60;1.52;;;16.70;99.90;;;;;;5055455;28;20233;-64
2022/10/16 02:25:07;;;;;;;2.58;1.50;;;16.60;99.90;;;;;;5055146;28;20629;-64
2022/10/16 02:27:40;;;;;;;7.03;1.83;;;16.60;99.90;;;;;;5055600;28;20212;-65
2022/10/16 02:30:12;;;;;;;4.43;1.20;;;16.60;99.90;;;;;;5055276;28;20226;-63
2022/10/16 02:32:43;;;;;;;3.05;1.50;;;16.70;99.90;;;;;;5055147;28;20225;-66
2022/10/16 02:35:11;;;;;;;2.58;1.33;;;16.70;99.90;;;;;;5054631;28;20228;-63
2022/10/16 02:37:39;;;;;;;2.97;1.30;;;16.70;99.90;;;;;;5055122;28;20209;-63
2022/10/16 02:40:07;;;;;;;3.33;1.20;;;16.70;99.90;;;;;;5054847;28;20245;-66
2022/10/16 02:42:35;;;;;;;2.40;1.30;;;16.80;99.90;;;;;;5055498;28;20208;-63
2022/10/16 02:45:04;;;;;;;2.45;1.17;;;16.90;99.90;;;;;;5054424;28;20209;-63
2022/10/16 02:47:30;;;;;;;2.35;1.30;;;17.00;99.90;;;;;;5054912;28;20687;-63
2022/10/16 02:49:57;;;;;;;7.63;1.40;;;17.00;99.90;;;;;;5055265;28;20233;-64
2022/10/16 02:52:24;;;;;;;5.03;1.50;;;17.00;99.90;;;;;;5056803;28;20221;-63
2022/10/16 02:54:51;;;;;;;7.57;1.70;;;17.00;99.90;;;;;;5057761;28;20221;-63
2022/10/16 02:57:18;;;;;;;6.07;1.38;;;17.10;99.90;;;;;;5057048;28;20661;-63
2022/10/16 02:59:45;;;;;;;2.67;1.02;;;17.10;99.90;;;;;;5055678;28;20233;-63
2022/10/16 03:02:13;;;;;;;4.53;1.20;;;17.10;99.90;;;;;;5054870;28;20201;-63
2022/10/16 03:04:39;;;;;;;3.65;1.20;;;17.10;99.90;;;;;;5053323;28;20202;-63
2022/10/16 03:07:07;;;;;;;2.80;1.27;;;17.00;99.90;;;;;;5054456;28;20212;-63
2022/10/16 03:09:34;;;;;;;3.05;1.02;;;16.90;99.90;;;;;;5054569;28;20279;-62
2022/10/16 03:12:00;;;;;;;3.20;1.30;;;16.80;99.90;;;;;;5054732;28;20225;-64
2022/10/16 03:14:27;;;;;;;2.35;1.10;;;16.80;99.90;;;;;;5054644;28;20202;-64
2022/10/16 03:16:54;;;;;;;1.20;1.10;;;16.80;99.90;;;;;;5053783;28;20241;-63
2022/10/16 03:19:22;;;;;;;2.63;1.10;;;16.80;99.90;;;;;;5054141;28;20208;-64
2022/10/16 03:21:49;;;;;;;1.65;1.00;;;16.80;99.90;;;;;;5054177;28;20208;-64
2022/10/16 03:24:16;;;;;;;2.35;1.17;;;16.70;99.90;;;;;;5054249;28;20263;-64
2022/10/16 03:26:43;;;;;;;2.90;1.08;;;16.60;99.90;;;;;;5053485;28;20217;-64
2022/10/16 03:29:09;;;;;;;8.00;1.27;;;16.60;99.90;;;;;;5053905;28;20202;-64
2022/10/16 03:31:36;;;;;;;5.20;1.20;;;16.60;99.90;;;;;;5054026;28;20225;-64
2022/10/16 03:34:03;;;;;;;2.50;1.00;;;16.60;99.90;;;;;;5054273;28;20205;-64
2022/10/16 03:36:31;;;;;;;5.03;1.20;;;16.60;99.90;;;;;;5054715;28;20202;-64
2022/10/16 03:38:58;;;;;;;2.22;1.02;;;16.70;99.90;;;;;;5054890;28;20212;-64
2022/10/16 03:41:24;;;;;;;6.82;1.02;;;16.70;99.90;;;;;;5054227;28;20732;-64
2022/10/16 03:43:51;;;;;;;1.45;1.05;;;16.70;99.90;;;;;;5036690;28;20205;-64
2022/10/16 03:46:18;;;;;;;3.22;1.33;;;16.70;99.90;;;;;;5053255;28;20201;-64
2022/10/16 03:48:45;;;;;;;2.75;1.10;;;16.70;99.90;;;;;;5053747;28;20208;-64
2022/10/16 03:51:11;;;;;;;5.63;1.25;;;16.60;99.90;;;;;;5053460;28;20233;-64
2022/10/16 03:53:39;;;;;;;6.75;1.17;;;16.60;99.90;;;;;;5053497;28;20700;-64
2022/10/16 03:56:07;;;;;;;1.25;0.95;;;16.60;99.90;;;;;;5052958;28;20210;-64
2022/10/16 03:58:34;;;;;;;3.83;1.10;;;16.60;99.90;;;;;;5053429;28;20267;-64
2022/10/16 04:01:00;;;;;;;4.72;1.02;;;16.50;99.90;;;;;;5053287;28;20233;-64
2022/10/16 04:03:27;;;;;;;2.03;1.10;;;16.60;99.90;;;;;;5053197;28;20212;-64
2022/10/16 04:05:54;;;;;;;2.80;1.40;;;16.60;99.90;;;;;;5052762;28;20634;-64
2022/10/16 04:08:21;;;;;;;1.27;0.90;;;16.60;99.90;;;;;;5052956;28;20228;-64
2022/10/16 04:10:49;;;;;;;2.25;1.20;;;16.60;99.90;;;;;;5053138;28;20233;-63
2022/10/16 04:13:15;;;;;;;3.33;0.95;;;16.70;99.90;;;;;;5053073;28;20237;-63
2022/10/16 04:15:42;;;;;;;2.80;1.15;;;16.80;99.90;;;;;;5052840;28;20201;-64
2022/10/16 04:18:09;;;;;;;3.28;1.20;;;16.90;99.90;;;;;;5052922;28;20213;-64
2022/10/16 04:20:35;;;;;;;4.47;1.80;;;16.90;99.90;;;;;;5052840;28;20252;-64
2022/10/16 04:23:03;;;;;;;2.28;1.45;;;17.00;99.90;;;;;;5052794;28;20549;-64
2022/10/16 04:25:29;;;;;;;3.17;1.40;;;17.00;99.90;;;;;;5052428;28;20588;-64
2022/10/16 04:27:57;;;;;;;1.73;1.00;;;17.00;99.90;;;;;;5052665;28;20212;-64
2022/10/16 04:30:24;;;;;;;3.60;1.35;;;17.00;99.90;;;;;;5052595;28;20228;-64
2022/10/16 04:32:51;;;;;;;1.90;1.35;;;16.90;99.90;;;;;;5052539;28;20242;-64
2022/10/16 04:35:18;;;;;;;11.70;8.07;;;16.80;99.90;;;;;;5052279;28;20216;-63
2022/10/16 04:37:45;;;;;;;7.22;3.42;;;16.70;99.90;;;;;;5052739;28;20228;-64
2022/10/16 04:40:12;;;;;;;4.93;1.60;;;16.50;99.90;;;;;;5052423;28;20653;-63
2022/10/16 04:42:39;;;;;;;4.50;1.30;;;16.30;99.90;;;;;;5052631;28;20209;-64
2022/10/16 04:45:08;;;;;;;3.83;1.30;;;16.20;99.90;;;;;;5051798;28;20213;-64
2022/10/16 04:47:35;;;;;;;3.25;1.00;;;16.20;99.90;;;;;;5052530;28;20221;-64
2022/10/16 04:50:02;;;;;;;3.05;1.05;;;16.20;99.90;;;;;;5052343;28;20232;-64
2022/10/16 04:52:29;;;;;;;5.00;1.10;;;16.30;99.90;;;;;;5052355;28;20234;-64
2022/10/16 04:55:00;;;;;;;3.72;1.20;;;16.40;99.90;;;;;;5051751;28;20213;-64
2022/10/16 04:57:26;;;;;;;4.53;1.25;;;16.50;99.90;;;;;;5052153;28;20213;-64
2022/10/16 04:59:53;;;;;;;5.28;1.27;;;16.60;99.90;;;;;;5052454;28;20230;-64
2022/10/16 05:02:21;;;;;;;3.20;1.10;;;16.70;99.90;;;;;;5052188;28;20252;-64
2022/10/16 05:04:48;;;;;;;4.40;1.50;;;16.70;99.90;;;;;;5051703;28;20216;-64
2022/10/16 05:07:15;;;;;;;6.30;1.17;;;16.80;99.90;;;;;;5052123;28;20208;-64
2022/10/16 05:09:42;;;;;;;5.90;1.45;;;16.80;99.90;;;;;;5052077;28;20225;-64
2022/10/16 05:12:08;;;;;;;4.28;1.50;;;16.80;99.90;;;;;;5051793;28;20221;-65
2022/10/16 05:14:35;;;;;;;3.47;1.58;;;16.80;99.90;;;;;;5052171;28;20232;-65
2022/10/16 05:17:02;;;;;;;3.75;1.20;;;16.80;99.90;;;;;;5051489;28;20263;-64
2022/10/16 05:19:30;;;;;;;4.47;1.05;;;16.70;99.90;;;;;;5051957;28;20573;-64
2022/10/16 05:21:57;;;;;;;2.45;1.30;;;16.70;99.90;;;;;;5051800;28;20686;-67
2022/10/16 05:24:24;;;;;;;2.35;1.00;;;16.70;99.90;;;;;;5052005;28;20292;-64
2022/10/16 05:26:51;;;;;;;4.47;1.17;;;16.70;99.90;;;;;;5050500;28;20677;-66
2022/10/16 05:29:17;;;;;;;5.22;1.50;;;16.80;99.90;;;;;;5051902;28;20621;-66
2022/10/16 05:31:44;;;;;;;1.23;1.00;;;16.80;99.90;;;;;;5051577;28;20202;-66
2022/10/16 05:34:11;;;;;;;2.60;1.40;;;16.80;99.90;;;;;;5051779;28;20209;-64
2022/10/16 05:36:39;;;;;;;2.78;1.48;;;16.70;99.90;;;;;;5051106;28;20629;-64
2022/10/16 05:39:06;;;;;;;5.13;1.40;;;16.70;99.90;;;;;;5051922;28;20206;-64
2022/10/16 05:41:33;;;;;;;1.83;1.25;;;16.70;99.90;;;;;;5051710;28;20229;-65
2022/10/16 05:43:59;;;;;;;6.38;2.63;;;16.80;99.90;;;;;;5052052;28;20375;-65
2022/10/16 05:46:26;;;;;;;4.57;1.70;;;16.80;99.90;;;;;;5051073;28;20232;-65
2022/10/16 05:48:54;;;;;;;2.27;1.10;;;16.80;99.90;;;;;;5051506;28;20210;-64
2022/10/16 05:51:21;;;;;;;9.00;1.30;;;16.80;99.90;;;;;;5051812;28;20236;-64
2022/10/16 05:53:49;;;;;;;2.50;1.20;;;16.80;99.90;;;;;;5051915;28;20229;-65
2022/10/16 05:56:16;;;;;;;2.22;1.15;;;16.80;99.90;;;;;;5051603;28;20209;-66
2022/10/16 05:58:44;;;;;;;1.67;1.20;;;16.70;99.90;;;;;;5051994;28;20665;-65
2022/10/16 06:01:12;;;;;;;4.38;1.30;;;16.70;99.90;;;;;;5051998;28;20672;-65
2022/10/16 06:03:39;;;;;;;5.32;1.92;;;16.70;99.90;;;;;;5051893;28;20231;-65
2022/10/16 06:06:10;;;;;;;4.65;1.48;;;16.70;99.90;;;;;;5051240;28;20205;-64
2022/10/16 06:08:37;;;;;;;4.03;1.20;;;16.70;99.90;;;;;;5052021;28;20209;-65
2022/10/16 06:11:08;;;;;;;2.25;1.50;;;16.80;99.90;;;;;;5052502;28;20239;-64
2022/10/16 06:13:35;;;;;;;2.92;1.40;;;16.90;99.90;;;;;;5052856;28;20229;-65
2022/10/16 06:16:02;;;;;;;3.72;1.63;;;16.90;99.90;;;;;;5054269;28;20210;-65
2022/10/16 06:18:30;;;;;;;3.97;1.77;;;17.00;99.90;;;;;;5057176;28;20216;-65
2022/10/16 06:20:58;;;;;;;8.43;2.03;;;17.00;99.90;;;;;;5056875;28;20237;-65
2022/10/16 06:23:25;;;;;;;3.15;1.65;;;17.00;99.90;;;;;;5055887;28;20202;-65
2022/10/16 06:25:52;;;;;;;3.30;1.50;;;17.00;99.90;;;;;;5051890;28;20258;-65
2022/10/16 06:28:20;;;;;;;3.90;1.83;;;17.00;99.90;;;;;;5051967;28;20205;-64
2022/10/16 06:30:47;;;;;;;6.20;1.35;;;17.10;99.90;;;;;;5051309;28;20229;-64
2022/10/16 06:33:14;;;;;;;3.40;1.27;;;17.10;99.90;;;;;;5051309;28;20225;-65
2022/10/16 06:35:40;;;;;;;2.25;1.48;;;17.10;99.90;;;;;;5051127;28;20220;-66
2022/10/16 06:38:07;;;;;;;6.55;1.17;;;17.20;99.90;;;;;;5051541;28;20213;-65
2022/10/16 06:40:34;;;;;;;3.28;1.38;;;17.30;99.90;;;;;;5053766;28;20234;-65
2022/10/16 06:43:01;;;;;;;4.32;1.63;;;17.30;99.90;;;;;;5055260;28;20209;-65
2022/10/16 06:45:29;;;;;;;2.60;1.20;;;17.40;99.90;;;;;;5054328;28;20213;-65
2022/10/16 06:47:55;;;;;;;5.80;1.80;;;17.50;99.90;;;;;;5054639;28;20210;-64
2022/10/16 06:50:23;;;;;;;2.88;1.70;;;17.60;99.90;;;;;;5054563;28;20233;-64
2022/10/16 06:52:50;;;;;;;1.92;1.40;;;17.70;99.90;;;;;;5054635;28;20518;-64
2022/10/16 06:55:17;;;;;;;2.70;1.75;;;17.70;99.90;;;;;;5054007;28;20212;-65
2022/10/16 06:57:44;;;;;;;4.15;1.45;;;17.70;99.90;;;;;;5054747;28;20259;-65
2022/10/16 07:00:11;;;;;;;4.40;1.63;;;17.70;99.90;;;;;;5054394;28;20229;-65
2022/10/16 07:02:39;;;;;;;2.53;1.25;;;17.90;99.90;;;;;;5054513;28;20209;-65
2022/10/16 07:05:07;;;;;;;2.63;1.35;;;18.00;99.90;;;;;;5054224;28;20232;-65
2022/10/16 07:07:33;;;;;;;2.55;1.50;;;18.10;99.90;;;;;;5054351;28;20216;-65
2022/10/16 07:10:00;;;;;;;3.42;1.17;;;18.20;99.90;;;;;;5054223;28;20226;-65
2022/10/16 07:12:27;;;;;;;4.95;1.40;;;18.30;99.90;;;;;;5054104;28;20209;-65
2022/10/16 07:14:54;;;;;;;10.98;7.05;;;18.30;99.90;;;;;;5053955;28;20232;-65
2022/10/16 07:17:21;;;;;;;4.85;1.80;;;18.40;99.90;;;;;;5054230;28;20206;-65
2022/10/16 07:19:49;;;;;;;1.92;1.40;;;18.40;99.90;;;;;;5054017;28;20236;-65
2022/10/16 07:22:16;;;;;;;3.13;1.25;;;18.30;99.90;;;;;;5054147;28;20212;-65
2022/10/16 07:24:43;;;;;;;5.63;1.20;;;18.50;99.90;;;;;;5054160;28;20206;-65
2022/10/16 07:27:10;;;;;;;3.13;1.40;;;18.80;99.90;;;;;;5053296;28;20632;-65
2022/10/16 07:29:36;;;;;;;3.80;1.38;;;19.00;99.90;;;;;;5053762;28;20222;-65
2022/10/16 07:32:03;;;;;;;7.68;1.80;;;19.20;99.90;;;;;;5053685;28;20248;-65
2022/10/16 07:34:30;;;;;;;2.50;1.20;;;19.30;99.90;;;;;;5053944;28;20228;-64
2022/10/16 07:36:58;;;;;;;4.75;1.55;;;19.30;99.90;;;;;;5053131;28;20213;-65
2022/10/16 07:39:28;;;;;;;4.88;1.30;;;19.30;99.90;;;;;;5053830;28;20205;-65
2022/10/16 07:41:55;;;;;;;4.38;1.90;;;19.30;99.90;;;;;;5053852;28;20205;-65
2022/10/16 07:44:22;;;;;;;3.63;1.70;;;19.30;99.90;;;;;;5053369;28;20566;-66
2022/10/16 07:46:48;;;;;;;2.55;1.60;;;19.30;99.90;;;;;;5053032;28;20221;-66
2022/10/16 07:49:15;;;;;;;4.15;1.88;;;19.30;99.90;;;;;;5053405;28;20327;-65
2022/10/16 07:51:42;;;;;;;3.50;1.80;;;19.30;99.90;;;;;;5053126;28;20209;-66
2022/10/16 07:54:11;;;;;;;5.93;2.00;;;19.30;99.90;;;;;;5053455;28;20225;-65
2022/10/16 07:56:37;;;;;;;3.88;1.70;;;19.30;99.90;;;;;;5052718;28;20210;-65
2022/10/16 07:59:04;;;;;;;5.78;1.80;;;19.20;99.90;;;;;;5053134;28;20201;-66
2022/10/16 08:01:31;;;;;;;3.85;1.90;;;19.10;99.90;;;;;;5053178;28;20233;-65
2022/10/16 08:03:58;;;;;;;2.17;1.58;;;19.00;99.90;;;;;;5053674;28;20210;-65
2022/10/16 08:06:25;;;;;;;6.75;1.30;;;19.00;99.90;;;;;;5053476;28;20220;-65
2022/10/16 08:08:51;;;;;;;5.10;1.48;;;19.00;99.90;;;;;;5053323;28;20213;-64
2022/10/16 08:11:20;;;;;;;2.78;1.60;;;19.00;99.90;;;;;;5053285;28;20831;-65
2022/10/16 08:13:46;;;;;;;2.08;1.52;;;19.10;99.90;;;;;;5055496;28;20225;-65
2022/10/16 08:16:13;;;;;;;6.88;1.30;;;19.20;99.90;;;;;;5054304;28;20205;-65
2022/10/16 08:18:41;;;;;;;4.30;1.20;;;19.20;99.90;;;;;;5052924;28;20642;-62
2022/10/16 08:21:14;;;;;;;6.38;1.70;;;19.30;99.90;;;;;;5053025;28;20325;-63
2022/10/16 08:23:41;;;;;;;7.60;1.50;;;19.40;99.90;;;;;;5052970;28;20198;-62
2022/10/16 08:26:09;;;;;;;10.45;1.65;;;19.40;99.90;;;;;;5052295;28;20206;-64
2022/10/16 08:28:37;;;;;;;6.57;1.77;;;19.50;99.90;;;;;;5052751;28;20216;-63
2022/10/16 08:31:09;;;;;;;9.30;1.77;;;19.60;99.90;;;;;;5052868;28;20228;-63
2022/10/16 08:33:36;;;;;;;4.28;1.40;;;19.70;99.90;;;;;;5052712;28;20231;-64
2022/10/16 08:36:04;;;;;;;7.20;1.48;;;19.80;99.90;;;;;;5051972;28;20288;-62
2022/10/16 08:38:30;;;;;;;1.75;1.30;;;19.80;99.90;;;;;;5052369;28;20232;-63
2022/10/16 08:41:20;;;;;;;3.95;1.17;;;19.90;99.90;;;;;;5052259;28;20233;-62
2022/10/16 08:44:15;;;;;;;3.25;1.40;;;20.20;99.90;;;;;;5052286;28;20198;-63
2022/10/16 08:46:48;;;;;;;3.75;1.40;;;20.50;99.90;;;;;;5051802;28;20205;-63
2022/10/16 08:49:15;;;;;;;3.85;1.90;;;20.90;99.90;;;;;;5052671;28;20216;-61
2022/10/16 08:51:43;;;;;;;6.15;2.00;;;21.20;99.90;;;;;;5052544;28;20206;-63
2022/10/16 08:54:22;;;;;;;5.88;1.40;;;21.40;99.90;;;;;;5052196;28;20229;-60
2022/10/16 08:56:49;;;;;;;1.67;1.13;;;21.70;99.90;;;;;;5051646;28;20232;-63
2022/10/16 08:59:17;;;;;;;3.08;1.38;;;21.90;99.90;;;;;;5051831;28;20216;-62
2022/10/16 09:01:47;;;;;;;2.42;1.00;;;22.20;99.90;;;;;;5051578;28;20677;-62
2022/10/16 09:04:44;;;;;;;4.82;1.13;;;22.40;99.90;;;;;;5052335;28;20201;-62
2022/10/16 09:07:16;;;;;;;1.33;0.80;;;22.50;99.90;;;;;;5051954;28;20209;-61
2022/10/16 09:10:02;;;;;;;3.75;1.30;;;22.60;99.90;;;;;;5051902;28;20225;-62
2022/10/16 09:12:36;;;;;;;4.45;1.25;;;22.60;99.90;;;;;;5052313;28;20217;-62
2022/10/16 09:15:14;;;;;;;2.97;1.30;;;22.60;99.90;;;;;;5052237;28;20606;-61
2022/10/16 09:17:53;;;;;;;2.55;1.42;;;22.60;99.90;;;;;;5052242;28;20201;-61
2022/10/16 09:20:29;;;;;;;1.83;1.63;;;22.60;99.90;;;;;;5051717;28;20226;-61
2022/10/16 09:23:11;;;;;;;2.20;1.20;;;22.60;99.90;;;;;;5051976;28;20201;-62
2022/10/16 09:25:40;;;;;;;8.13;1.23;;;22.60;99.90;;;;;;5051384;28;20209;-62
2022/10/16 09:28:09;;;;;;;4.63;1.10;;;22.30;99.90;;;;;;5051837;28;20765;-61
2022/10/16 09:30:39;;;;;;;1.90;1.00;;;22.10;99.90;;;;;;5051491;28;20343;-61
2022/10/16 09:33:07;;;;;;;2.38;1.10;;;22.00;99.90;;;;;;5052068;28;20237;-61
2022/10/16 09:35:38;;;;;;;5.28;1.27;;;22.20;99.90;;;;;;5051363;28;20205;-63
2022/10/16 09:38:05;;;;;;;4.53;1.20;;;22.40;99.90;;;;;;5051991;28;20205;-62
2022/10/16 09:40:34;;;;;;;1.58;1.05;;;22.60;99.90;;;;;;5052233;28;20233;-61
2022/10/16 09:43:07;;;;;;;3.42;1.10;;;22.70;99.90;;;;;;5052067;28;20296;-61
2022/10/16 09:45:34;;;;;;;2.92;1.10;;;22.90;99.90;;;;;;5051225;28;20201;-61
2022/10/16 09:48:12;;;;;;;5.88;1.30;;;22.80;99.90;;;;;;5051733;28;20620;-61
2022/10/16 09:50:39;;;;;;;4.00;1.23;;;22.70;99.90;;;;;;5051581;28;20229;-62
2022/10/16 09:53:09;;;;;;;3.38;2.63;;;22.60;99.90;;;;;;5051876;28;20679;-63
2022/10/16 09:55:36;;;;;;;7.25;1.15;;;22.60;99.90;;;;;;5051764;28;20208;-61
2022/10/16 09:58:03;;;;;;;2.67;0.70;;;22.50;99.90;;;;;;5052080;28;20593;-62
2022/10/16 10:00:29;;;;;;;4.18;0.80;;;22.50;99.90;;;;;;5051749;28;20255;-62
2022/10/16 10:02:57;;;;;;;4.07;1.00;;;22.60;99.90;;;;;;5052100;28;20212;-62
2022/10/16 10:05:26;;;;;;;2.78;1.20;;;22.70;99.90;;;;;;5050961;28;20252;-62
2022/10/16 10:07:57;;;;;;;4.32;1.02;;;22.70;99.90;;;;;;5052539;28;20201;-63
2022/10/16 10:10:26;;;;;;;3.60;1.70;;;22.80;99.90;;;;;;5051642;28;20254;-62
2022/10/16 10:12:53;;;;;;;3.03;0.98;;;23.00;99.90;;;;;;5051946;28;20209;-62
2022/10/16 10:15:21;;;;;;;6.95;3.25;;;23.20;99.90;;;;;;5054504;28;20312;-62
2022/10/16 10:17:51;;;;;;;2.72;1.58;;;23.40;99.90;;;;;;5055683;28;20474;-62
2022/10/16 10:20:28;;;;;;;3.15;1.00;;;23.60;99.90;;;;;;5055583;28;20228;-61
2022/10/16 10:22:55;;;;;;;2.17;1.30;;;23.90;99.90;;;;;;5055462;28;20209;-62
2022/10/16 10:25:45;;;;;;;0.98;0.88;;;24.00;99.90;;;;;;5055443;28;20263;-62
2022/10/16 10:28:44;;;;;;;5.18;1.23;;;24.00;99.90;;;;;;5056348;28;20205;-62
2022/10/16 10:31:18;;;;;;;1.10;0.70;;;24.20;99.90;;;;;;5055011;28;20230;-61
2022/10/16 10:33:51;;;;;;;2.08;0.90;;;24.40;99.90;;;;;;5054966;28;20229;-62
2022/10/16 10:36:30;;;;;;;4.60;1.10;;;24.60;99.90;;;;;;5054223;28;20208;-62
2022/10/16 10:39:00;;;;;;;2.40;1.40;;;24.80;99.90;;;;;;5055417;28;20213;-61
2022/10/16 10:41:54;;;;;;;3.55;1.60;;;25.00;99.90;;;;;;5055430;28;20256;-62
2022/10/16 10:44:31;;;;;;;2.13;1.30;;;25.20;99.90;;;;;;5055537;28;20205;-61
2022/10/16 10:47:02;;;;;;;6.13;1.38;;;25.40;99.90;;;;;;5054688;28;20681;-62
2022/10/16 10:49:41;;;;;;;2.50;1.98;;;25.60;99.90;;;;;;5054735;28;20704;-62
2022/10/16 10:52:25;;;;;;;2.05;1.20;;;25.90;99.90;;;;;;5056447;28;20292;-62
2022/10/16 10:55:01;;;;;;;4.35;1.20;;;26.30;99.90;;;;;;5055003;28;20240;-62
2022/10/16 10:57:31;;;;;;;4.90;1.17;;;26.60;99.90;;;;;;5054285;28;20209;-63
2022/10/16 11:00:11;;;;;;;4.70;1.30;;;26.80;99.90;;;;;;5054823;28;20228;-62
2022/10/16 11:02:42;;;;;;;2.40;0.80;;;27.00;99.90;;;;;;5055181;28;20216;-61
2022/10/16 11:05:39;;;;;;;3.85;1.25;;;27.20;99.90;;;;;;5054768;28;20206;-62
2022/10/16 11:08:14;;;;;;;4.82;1.30;;;27.30;99.90;;;;;;5054621;28;20209;-62
2022/10/16 11:10:48;;;;;;;3.30;1.02;;;27.30;99.90;;;;;;5054569;28;20237;-63
2022/10/16 11:13:29;;;;;;;3.58;0.95;;;27.30;99.90;;;;;;5055265;28;20591;-62
2022/10/16 11:16:00;;;;;;;2.90;1.50;;;27.40;99.90;;;;;;5054808;28;20205;-62
2022/10/16 11:18:35;;;;;;;1.83;1.60;;;27.40;99.90;;;;;;5056703;28;20217;-62
2022/10/16 11:21:06;;;;;;;1.90;1.00;;;27.30;99.90;;;;;;5055736;28;20261;-63
2022/10/16 11:23:41;;;;;;;2.08;0.90;;;27.20;99.90;;;;;;5056806;28;20210;-62
2022/10/16 11:26:13;;;;;;;8.50;4.63;;;27.20;99.90;;;;;;5054312;28;20209;-65
2022/10/16 11:28:45;;;;;;;8.10;2.97;;;27.10;99.90;;;;;;5057546;28;20237;-63
2022/10/16 11:31:18;;;;;;;5.57;1.20;;;27.00;99.90;;;;;;5055494;28;20229;-64
2022/10/16 11:33:49;;;;;;;2.67;1.15;;;26.90;99.90;;;;;;5055745;28;20213;-63
2022/10/16 11:36:20;;;;;;;2.80;1.08;;;26.90;99.90;;;;;;5054692;28;20213;-63
2022/10/16 11:38:53;;;;;;;3.85;1.05;;;26.80;99.90;;;;;;5054944;28;20202;-63
2022/10/16 11:41:27;;;;;;;2.35;1.10;;;26.60;99.90;;;;;;5054309;28;20768;-63
2022/10/16 11:44:06;;;;;;;0.93;0.80;;;26.50;99.90;;;;;;5053782;28;20205;-62
2022/10/16 11:46:34;;;;;;;2.15;1.10;;;26.30;99.90;;;;;;5055547;28;20209;-63
2022/10/16 11:49:08;;;;;;;3.63;1.10;;;26.00;99.90;;;;;;5055301;28;20213;-62
2022/10/16 11:51:39;;;;;;;2.72;0.90;;;25.80;99.90;;;;;;5056354;28;20210;-61
2022/10/16 11:54:17;;;;;;;1.83;0.80;;;25.80;99.90;;;;;;5061253;28;20724;-61
2022/10/16 11:56:46;;;;;;;2.58;0.90;;;25.80;99.90;;;;;;5061686;28;20216;-63
2022/10/16 11:59:21;;;;;;;4.57;1.65;;;25.90;99.90;;;;;;5062148;28;20214;-61
2022/10/16 12:01:52;;;;;;;3.10;1.10;;;26.00;99.90;;;;;;5061001;28;20197;-61
2022/10/16 12:04:27;;;;;;;4.55;1.05;;;25.90;99.90;;;;;;5058089;28;20213;-60
2022/10/16 12:06:58;;;;;;;1.05;0.90;;;26.00;99.90;;;;;;5053611;28;20212;-61
2022/10/16 12:09:30;;;;;;;3.08;1.20;;;26.00;99.90;;;;;;5053883;28;20576;-60
2022/10/16 12:11:57;;;;;;;2.63;1.20;;;26.00;99.90;;;;;;5053454;28;20579;-59
2022/10/16 12:14:36;;;;;;;1.38;1.08;;;25.90;99.90;;;;;;5053548;28;20234;-60
2022/10/16 12:17:06;;;;;;;1.98;1.13;;;25.90;99.90;;;;;;5052750;28;20213;-59
2022/10/16 12:19:33;;;;;;;5.60;1.33;;;26.00;99.90;;;;;;5053092;28;20798;-64
2022/10/16 12:22:02;;;;;;;3.50;1.17;;;26.20;99.90;;;;;;5053191;28;20553;-60
2022/10/16 12:24:35;;;;;;;3.67;1.20;;;26.40;99.90;;;;;;5053506;28;20197;-59
2022/10/16 12:27:02;;;;;;;4.90;1.10;;;26.50;99.90;;;;;;5052680;28;20217;-59
2022/10/16 12:29:38;;;;;;;1.73;0.80;;;26.60;99.90;;;;;;5053239;28;20202;-60
2022/10/16 12:32:20;;;;;;;6.22;1.48;;;26.50;99.90;;;;;;5053465;28;20204;-60
2022/10/16 12:34:48;;;;;;;2.75;1.20;;;26.50;99.90;;;;;;5052787;28;20727;-60
2022/10/16 12:37:21;;;;;;;1.20;0.90;;;26.40;99.90;;;;;;5051577;28;20576;-60
2022/10/16 12:39:50;;;;;;;2.00;0.90;;;26.40;99.90;;;;;;5053040;28;20230;-59
2022/10/16 12:42:34;;;;;;;1.10;0.90;;;26.20;99.90;;;;;;5052883;28;20673;-59
2022/10/16 12:45:01;;;;;;;3.47;0.75;;;26.00;99.90;;;;;;5052852;28;20229;-59
2022/10/16 12:47:47;;;;;;;4.80;0.77;;;25.90;99.90;;;;;;5052207;28;20208;-62
2022/10/16 12:50:34;;;;;;;1.77;1.10;;;25.80;99.90;;;;;;5052657;28;20276;-59
2022/10/16 12:53:03;;;;;;;2.75;0.95;;;25.70;99.90;;;;;;5053057;28;20217;-59
2022/10/16 12:55:43;;;;;;;3.13;0.85;;;25.60;99.90;;;;;;5051996;28;20225;-60
2022/10/16 12:58:24;;;;;;;2.00;1.30;;;25.50;99.90;;;;;;5052884;28;20205;-60
2022/10/16 13:00:58;;;;;;;4.95;1.00;;;25.40;99.90;;;;;;5052444;28;20229;-61